Time;durP1;ratioP1;P1;durP2;ratioP2;P2;SDS_P1;SDS_P2;PMS_P1;PMS_P2;Temp;Humidity;BMP_temperature;BMP_pressure;BME280_temperature;BME280_humidity;BME280_pressure;Samples;Min_cycle;Max_cycle;Signal;HPM_P1;HPM_P2
2022/09/09 00:02:02;;;;;;;1.55;1.20;;;13.90;99.90;;;;;;5012489;28;20042;-47
2022/09/09 00:04:36;;;;;;;2.90;1.48;;;13.90;99.90;;;;;;5011837;28;20113;-48
2022/09/09 00:07:24;;;;;;;4.07;1.42;;;13.90;99.90;;;;;;5012364;28;20545;-47
2022/09/09 00:10:00;;;;;;;2.33;1.10;;;13.80;99.90;;;;;;5012440;28;20080;-46
2022/09/09 00:12:48;;;;;;;1.90;1.42;;;13.80;99.90;;;;;;5023480;28;20077;-46
2022/09/09 00:15:23;;;;;;;3.58;1.10;;;13.80;99.90;;;;;;5011888;28;20097;-46
2022/09/09 00:18:10;;;;;;;0.85;0.80;;;13.80;99.90;;;;;;5012051;28;20533;-46
2022/09/09 00:21:03;;;;;;;6.35;0.95;;;13.80;99.90;;;;;;5013599;28;20076;-46
2022/09/09 00:23:39;;;;;;;1.05;0.93;;;13.80;99.90;;;;;;5012016;28;20100;-48
2022/09/09 00:34:21;;;;;;;2.90;1.00;;;13.80;99.90;;;;;;5027914;28;20056;-49
2022/09/09 00:36:51;;;;;;;1.63;0.85;;;13.80;99.90;;;;;;5031684;28;20104;-50
2022/09/09 00:39:38;;;;;;;1.50;0.80;;;13.80;99.90;;;;;;5012008;28;20111;-50
2022/09/09 00:42:24;;;;;;;1.67;0.90;;;13.80;99.90;;;;;;5031651;28;20041;-50
2022/09/09 00:45:25;;;;;;;8.43;1.05;;;13.70;99.90;;;;;;5013445;28;20092;-51
2022/09/09 00:47:53;;;;;;;2.38;0.77;;;13.60;99.90;;;;;;5030452;28;20045;-49
2022/09/09 00:50:32;;;;;;;1.27;0.90;;;13.70;99.90;;;;;;5012631;28;20103;-50
2022/09/09 00:53:24;;;;;;;3.38;0.98;;;13.70;99.90;;;;;;5011617;28;20049;-49
2022/09/09 00:56:16;;;;;;;2.03;0.73;;;13.70;99.90;;;;;;4999162;28;20061;-49
2022/09/09 00:59:03;;;;;;;1.30;0.90;;;13.70;99.90;;;;;;5030192;28;20080;-49
2022/09/09 01:01:30;;;;;;;2.40;0.73;;;13.70;99.90;;;;;;5024129;28;20037;-49
2022/09/09 01:04:00;;;;;;;1.40;0.85;;;13.70;99.90;;;;;;5013170;28;20128;-51
2022/09/09 01:06:32;;;;;;;2.60;0.77;;;13.80;99.90;;;;;;5031203;28;20045;-49
2022/09/09 01:09:11;;;;;;;0.68;0.68;;;13.80;99.90;;;;;;5027484;28;20064;-50
2022/09/09 01:11:56;;;;;;;3.42;0.70;;;13.80;99.90;;;;;;5003088;28;20049;-49
2022/09/09 01:14:27;;;;;;;2.92;0.70;;;13.90;99.90;;;;;;5010572;28;20537;-49
2022/09/09 01:16:59;;;;;;;1.90;0.63;;;13.90;99.90;;;;;;5031065;28;20053;-51
2022/09/09 01:19:44;;;;;;;1.38;0.82;;;13.80;99.90;;;;;;5011263;28;20041;-49
2022/09/09 01:22:34;;;;;;;1.58;0.85;;;13.80;99.90;;;;;;5030629;28;20041;-49
2022/09/09 01:25:20;;;;;;;1.88;0.73;;;13.80;99.90;;;;;;5013112;28;20037;-49
2022/09/09 01:28:10;;;;;;;0.95;0.68;;;13.80;99.90;;;;;;5032507;28;20123;-50
2022/09/09 01:30:40;;;;;;;3.72;0.60;;;13.80;99.90;;;;;;5030026;28;20104;-50
2022/09/09 01:33:16;;;;;;;0.68;0.68;;;13.90;99.90;;;;;;5013077;28;20041;-51
2022/09/09 01:35:50;;;;;;;1.85;0.77;;;13.80;99.90;;;;;;5012555;28;20037;-49
2022/09/09 01:38:19;;;;;;;2.58;1.02;;;13.80;99.90;;;;;;5002575;28;20058;-50
2022/09/09 01:40:49;;;;;;;5.60;1.10;;;13.80;99.90;;;;;;5025203;28;20045;-50
2022/09/09 01:43:15;;;;;;;2.90;0.60;;;13.90;99.90;;;;;;5012020;28;20057;-49
2022/09/09 01:45:43;;;;;;;2.08;0.65;;;13.90;99.90;;;;;;5011748;28;20048;-49
2022/09/09 01:48:10;;;;;;;1.48;0.80;;;13.90;99.90;;;;;;5030921;28;20048;-49
2022/09/09 01:50:52;;;;;;;3.50;0.77;;;13.90;99.90;;;;;;5011562;28;20046;-50
2022/09/09 01:53:21;;;;;;;2.72;0.80;;;13.90;99.90;;;;;;5013112;28;20077;-49
2022/09/09 01:56:03;;;;;;;2.90;0.88;;;13.90;99.90;;;;;;5012425;28;20050;-52
2022/09/09 01:59:17;;;;;;;2.05;0.77;;;14.00;99.90;;;;;;5011484;28;20041;-49
2022/09/09 02:01:56;;;;;;;1.98;1.00;;;14.00;99.90;;;;;;5007191;28;20050;-53
2022/09/09 02:04:45;;;;;;;1.85;0.70;;;13.90;99.90;;;;;;5012943;28;20115;-49
2022/09/09 02:07:42;;;;;;;2.60;0.93;;;13.90;99.90;;;;;;5010940;28;20069;-52
2022/09/09 02:10:28;;;;;;;1.73;0.82;;;13.90;99.90;;;;;;5026766;28;20041;-50
2022/09/09 02:13:10;;;;;;;2.25;0.90;;;14.00;99.90;;;;;;5011958;28;20438;-50
2022/09/09 02:16:02;;;;;;;1.23;0.65;;;13.90;99.90;;;;;;5012683;28;20136;-49
2022/09/09 02:18:53;;;;;;;2.65;0.80;;;13.90;99.90;;;;;;5004608;28;20501;-52
2022/09/09 02:21:28;;;;;;;7.03;0.88;;;13.90;99.90;;;;;;4962012;28;20073;-49
2022/09/09 02:23:58;;;;;;;5.47;1.00;;;13.90;99.90;;;;;;5010409;28;20077;-51
2022/09/09 02:26:27;;;;;;;3.28;0.90;;;13.90;99.90;;;;;;5029573;28;20059;-50
2022/09/09 02:29:05;;;;;;;6.13;1.25;;;13.80;99.90;;;;;;5013769;28;20042;-49
2022/09/09 02:31:35;;;;;;;3.42;1.17;;;13.80;99.90;;;;;;5012591;28;20066;-51
2022/09/09 02:34:10;;;;;;;2.33;0.93;;;13.80;99.90;;;;;;4995837;28;20050;-50
2022/09/09 02:36:40;;;;;;;2.42;0.90;;;13.80;99.90;;;;;;5001264;28;20112;-50
2022/09/09 02:39:09;;;;;;;3.20;1.00;;;13.80;99.90;;;;;;5015898;28;20053;-52
2022/09/09 02:41:41;;;;;;;0.95;0.73;;;13.80;99.90;;;;;;5018711;28;20049;-51
2022/09/09 02:44:19;;;;;;;4.10;0.88;;;13.80;99.90;;;;;;5028352;28;20057;-51
2022/09/09 02:46:58;;;;;;;3.92;1.08;;;13.80;99.90;;;;;;4995878;28;20089;-50
2022/09/09 02:49:31;;;;;;;3.88;0.88;;;13.80;99.90;;;;;;5001940;28;20081;-50
2022/09/09 02:52:06;;;;;;;3.03;0.80;;;13.90;99.90;;;;;;5014668;28;20128;-49
2022/09/09 02:54:40;;;;;;;1.13;0.90;;;13.90;99.90;;;;;;5015341;28;20046;-49
2022/09/09 02:57:21;;;;;;;0.95;0.63;;;13.90;99.90;;;;;;5014512;28;20531;-52
2022/09/09 02:59:49;;;;;;;2.67;1.00;;;13.90;99.90;;;;;;5015542;28;20128;-53
2022/09/09 03:02:16;;;;;;;4.63;0.90;;;14.00;99.90;;;;;;5015850;28;20107;-50
2022/09/09 03:04:50;;;;;;;5.65;0.95;;;13.90;99.90;;;;;;5014994;28;20045;-51
2022/09/09 03:07:18;;;;;;;2.88;0.95;;;14.00;99.90;;;;;;5012459;28;20046;-52
2022/09/09 03:09:46;;;;;;;1.98;0.95;;;13.90;99.90;;;;;;5013410;28;20048;-51
2022/09/09 03:12:13;;;;;;;0.90;0.65;;;13.90;99.90;;;;;;5032332;28;20049;-51
2022/09/09 03:14:40;;;;;;;1.40;0.90;;;13.90;99.90;;;;;;5013485;28;20045;-49
2022/09/09 03:17:07;;;;;;;0.95;0.75;;;13.90;99.90;;;;;;5032608;28;20038;-51
2022/09/09 03:19:39;;;;;;;3.22;0.85;;;13.90;99.90;;;;;;5014826;28;20045;-50
2022/09/09 03:22:10;;;;;;;2.50;1.08;;;13.90;99.90;;;;;;5013135;28;20859;-52
2022/09/09 03:24:40;;;;;;;2.35;0.90;;;13.90;99.90;;;;;;5031220;28;20042;-52
2022/09/09 03:27:07;;;;;;;3.95;0.88;;;13.90;99.90;;;;;;5014847;28;20091;-49
2022/09/09 03:29:36;;;;;;;4.55;1.52;;;13.90;99.90;;;;;;5014385;28;20041;-53
2022/09/09 03:32:07;;;;;;;2.95;1.10;;;13.90;99.90;;;;;;5010243;28;20100;-50
2022/09/09 03:34:34;;;;;;;;;;;13.90;99.90;;;;;;5028783;28;20045;-50
2022/09/09 03:37:00;;;;;;;3.03;0.93;;;13.90;99.90;;;;;;5032827;28;19928;-49
2022/09/09 03:39:28;;;;;;;1.23;0.88;;;13.90;99.90;;;;;;5013973;28;20057;-50
2022/09/09 03:41:55;;;;;;;6.32;1.13;;;13.80;99.90;;;;;;5026115;28;20045;-50
2022/09/09 03:44:22;;;;;;;2.13;0.98;;;13.80;99.90;;;;;;5031726;28;20037;-52
2022/09/09 03:46:49;;;;;;;4.45;0.90;;;13.80;99.90;;;;;;5032277;28;20087;-50
2022/09/09 03:49:16;;;;;;;2.75;1.08;;;13.80;99.90;;;;;;5010295;28;20465;-50
2022/09/09 03:51:43;;;;;;;1.58;0.73;;;13.80;99.90;;;;;;5024637;28;20037;-49
2022/09/09 03:54:12;;;;;;;4.78;1.08;;;13.80;99.90;;;;;;5013883;28;20103;-48
2022/09/09 03:56:41;;;;;;;2.30;1.10;;;13.80;99.90;;;;;;5032154;28;20084;-48
2022/09/09 03:59:09;;;;;;;3.22;1.00;;;13.80;99.90;;;;;;5018760;28;20116;-48
2022/09/09 04:01:36;;;;;;;2.25;1.10;;;13.80;99.90;;;;;;5032299;28;20072;-48
2022/09/09 04:04:03;;;;;;;4.57;1.58;;;13.80;99.90;;;;;;5013844;28;20076;-49
2022/09/09 04:06:30;;;;;;;2.83;1.48;;;13.80;99.90;;;;;;5014327;28;20057;-48
2022/09/09 04:08:56;;;;;;;2.53;1.70;;;13.70;99.90;;;;;;5013454;28;20041;-48
2022/09/09 04:11:25;;;;;;;3.08;1.25;;;13.80;99.90;;;;;;5032077;28;20470;-48
2022/09/09 04:13:54;;;;;;;1.95;1.25;;;13.80;99.90;;;;;;5021608;28;20136;-48
2022/09/09 04:16:21;;;;;;;4.00;1.27;;;13.80;99.90;;;;;;5013286;28;20046;-49
2022/09/09 04:18:48;;;;;;;2.00;1.05;;;13.70;99.90;;;;;;5031672;28;20120;-49
2022/09/09 04:21:17;;;;;;;2.65;1.00;;;13.70;99.90;;;;;;5011471;28;20053;-49
2022/09/09 04:23:44;;;;;;;1.65;1.00;;;13.70;99.90;;;;;;5013732;28;20041;-48
2022/09/09 04:26:13;;;;;;;2.35;1.08;;;13.80;99.90;;;;;;5027768;28;20080;-48
2022/09/09 04:28:40;;;;;;;1.40;0.90;;;13.80;99.90;;;;;;5010819;28;20037;-48
2022/09/09 04:31:19;;;;;;;2.03;0.90;;;13.80;99.90;;;;;;5009632;28;20045;-49
2022/09/09 04:33:51;;;;;;;3.55;0.93;;;13.80;99.90;;;;;;5012658;28;20049;-48
2022/09/09 04:36:19;;;;;;;2.08;1.05;;;13.80;99.90;;;;;;5011258;28;20135;-48
2022/09/09 04:38:48;;;;;;;1.15;0.82;;;13.70;99.90;;;;;;5012840;28;20076;-48
2022/09/09 04:41:16;;;;;;;1.17;0.90;;;13.80;99.90;;;;;;5011774;28;20124;-49
2022/09/09 04:43:44;;;;;;;1.60;1.00;;;13.80;99.90;;;;;;5012067;28;20380;-49
2022/09/09 04:46:16;;;;;;;1.88;1.00;;;13.90;99.90;;;;;;5012591;28;20466;-48
2022/09/09 04:48:43;;;;;;;1.52;0.85;;;13.90;99.90;;;;;;5013377;28;20053;-48
2022/09/09 04:51:13;;;;;;;1.40;0.88;;;13.90;99.90;;;;;;5013598;28;20498;-50
2022/09/09 04:53:41;;;;;;;1.52;1.17;;;13.90;99.90;;;;;;5012277;28;20034;-49
2022/09/09 04:56:14;;;;;;;1.77;1.00;;;13.90;99.90;;;;;;5009508;28;20669;-47
2022/09/09 04:58:46;;;;;;;1.80;1.00;;;13.90;99.90;;;;;;5011209;28;20065;-49
2022/09/09 05:01:17;;;;;;;1.52;1.15;;;13.90;99.90;;;;;;5008755;28;20052;-48
2022/09/09 05:03:46;;;;;;;3.13;1.23;;;14.00;99.90;;;;;;5011955;28;20498;-49
2022/09/09 05:06:18;;;;;;;8.40;1.40;;;14.00;99.90;;;;;;5002390;28;20463;-49
2022/09/09 05:08:50;;;;;;;4.55;1.20;;;14.00;99.90;;;;;;5018325;28;20049;-48
2022/09/09 05:11:24;;;;;;;2.50;1.25;;;14.00;99.90;;;;;;5015306;28;20501;-48
2022/09/09 05:13:54;;;;;;;4.80;1.30;;;14.00;99.90;;;;;;4997091;28;20045;-48
2022/09/09 05:16:21;;;;;;;3.55;1.17;;;14.00;99.90;;;;;;5030833;28;20088;-48
2022/09/09 05:18:51;;;;;;;2.33;1.08;;;14.00;99.90;;;;;;5028802;28;20514;-48
2022/09/09 05:21:21;;;;;;;1.63;1.10;;;14.10;99.90;;;;;;4994884;28;20396;-48
2022/09/09 05:23:48;;;;;;;2.50;1.10;;;14.10;99.90;;;;;;5019962;28;20360;-49
2022/09/09 05:26:17;;;;;;;2.10;1.02;;;14.10;99.90;;;;;;5027685;28;20037;-48
2022/09/09 05:28:47;;;;;;;3.55;1.10;;;14.10;99.90;;;;;;5022293;28;20469;-49
2022/09/09 05:31:16;;;;;;;2.92;1.30;;;14.10;99.90;;;;;;5011791;28;20405;-48
2022/09/09 05:33:47;;;;;;;3.10;1.38;;;14.10;99.90;;;;;;5011470;28;20049;-48
2022/09/09 05:36:20;;;;;;;3.05;1.20;;;14.10;99.90;;;;;;5012171;28;20045;-48
2022/09/09 05:38:50;;;;;;;2.40;1.10;;;14.10;99.90;;;;;;5046164;28;20112;-48
2022/09/09 05:41:19;;;;;;;1.65;1.10;;;14.10;99.90;;;;;;5004122;28;20115;-48
2022/09/09 05:43:48;;;;;;;2.10;0.90;;;14.10;99.90;;;;;;5001406;28;20041;-48
2022/09/09 05:46:17;;;;;;;5.13;1.50;;;14.10;99.90;;;;;;5012062;28;20044;-49
2022/09/09 05:48:47;;;;;;;3.60;1.30;;;14.10;99.90;;;;;;5011079;28;20045;-49
2022/09/09 05:51:21;;;;;;;6.30;1.15;;;14.00;99.90;;;;;;5010227;28;20049;-49
2022/09/09 05:53:48;;;;;;;2.63;1.35;;;14.00;99.90;;;;;;5009318;28;20088;-48
2022/09/09 05:56:18;;;;;;;1.38;1.13;;;14.00;99.90;;;;;;5004861;28;20108;-49
2022/09/09 05:58:49;;;;;;;6.97;1.33;;;14.10;99.90;;;;;;5015723;28;20052;-48
2022/09/09 06:01:40;;;;;;;3.92;1.05;;;14.10;99.90;;;;;;5015280;28;20532;-48
2022/09/09 06:04:09;;;;;;;3.83;1.33;;;14.10;99.90;;;;;;5015158;28;20510;-48
2022/09/09 06:06:39;;;;;;;1.30;1.10;;;14.20;99.90;;;;;;5015416;28;20509;-48
2022/09/09 06:09:12;;;;;;;3.67;1.30;;;14.20;99.90;;;;;;5017511;28;20038;-52
2022/09/09 06:11:42;;;;;;;2.45;1.40;;;14.20;99.90;;;;;;5015309;28;20136;-49
2022/09/09 06:14:10;;;;;;;4.07;1.30;;;14.20;99.90;;;;;;5015538;28;20141;-49
2022/09/09 06:16:38;;;;;;;3.83;1.33;;;14.20;99.90;;;;;;5016236;28;20049;-48
2022/09/09 06:19:12;;;;;;;3.63;1.27;;;14.20;99.90;;;;;;5025834;28;20046;-48
2022/09/09 06:21:40;;;;;;;5.75;1.38;;;14.20;99.90;;;;;;5024002;28;20132;-48
2022/09/09 06:24:08;;;;;;;2.42;1.42;;;14.10;99.90;;;;;;5015582;28;20049;-49
2022/09/09 06:27:26;;;;;;;3.65;1.60;;;14.10;99.90;;;;;;5035317;22;20072;-45
2022/09/09 06:34:21;;;;;;;1.90;1.17;;;14.10;99.90;;;;;;5052148;28;20083;-44
2022/09/09 06:36:52;;;;;;;2.95;1.50;;;14.10;99.90;;;;;;5039107;28;20136;-45
2022/09/09 06:39:19;;;;;;;3.42;1.25;;;14.20;99.90;;;;;;5035736;28;20075;-46
2022/09/09 06:41:46;;;;;;;2.50;1.70;;;14.20;99.90;;;;;;5051232;28;20076;-44
2022/09/09 06:44:33;;;;;;;1.77;1.35;;;14.20;99.90;;;;;;5047832;28;20493;-44
2022/09/09 06:47:02;;;;;;;2.58;1.50;;;14.20;99.90;;;;;;5026661;28;20088;-45
2022/09/09 06:49:30;;;;;;;4.32;1.92;;;14.20;99.90;;;;;;5035644;28;20394;-44
2022/09/09 06:51:57;;;;;;;3.88;1.77;;;14.30;99.90;;;;;;5051982;28;20464;-44
2022/09/09 06:54:25;;;;;;;1.77;1.25;;;14.30;99.90;;;;;;5051027;28;20045;-45
2022/09/09 06:56:52;;;;;;;1.48;1.05;;;14.30;99.90;;;;;;5052092;28;20127;-45
2022/09/09 06:59:22;;;;;;;1.83;1.10;;;14.30;99.90;;;;;;5035273;28;20107;-44
2022/09/09 07:01:54;;;;;;;4.53;2.28;;;14.30;99.90;;;;;;5034202;28;20068;-44
2022/09/09 07:04:22;;;;;;;1.23;1.00;;;14.30;99.90;;;;;;5034047;28;20147;-44
2022/09/09 07:06:49;;;;;;;5.22;1.02;;;14.40;99.90;;;;;;5034901;28;20096;-45
2022/09/09 07:09:21;;;;;;;6.07;1.70;;;14.30;99.90;;;;;;5032839;28;20517;-47
2022/09/09 07:11:54;;;;;;;1.90;1.25;;;14.30;99.90;;;;;;5026789;28;20543;-47
2022/09/09 07:14:23;;;;;;;6.90;1.15;;;14.30;99.90;;;;;;5034850;28;20517;-44
2022/09/09 07:16:57;;;;;;;2.97;1.40;;;14.30;99.90;;;;;;5034836;28;20111;-45
2022/09/09 07:19:26;;;;;;;2.10;1.42;;;14.30;99.90;;;;;;5028304;28;20123;-44
2022/09/09 07:21:54;;;;;;;3.65;1.55;;;14.40;99.90;;;;;;5051069;28;20120;-45
2022/09/09 07:24:23;;;;;;;4.47;1.80;;;14.40;99.90;;;;;;5033916;28;20055;-45
2022/09/09 07:26:51;;;;;;;3.70;2.10;;;14.40;99.90;;;;;;5051871;28;20083;-44
2022/09/09 07:29:19;;;;;;;2.28;1.65;;;14.40;99.90;;;;;;5034721;28;20157;-44
2022/09/09 07:31:48;;;;;;;7.20;2.30;;;14.50;99.90;;;;;;5034597;28;20127;-46
2022/09/09 07:34:20;;;;;;;4.97;2.05;;;14.50;99.90;;;;;;5027192;28;20141;-47
2022/09/09 07:36:47;;;;;;;2.92;2.00;;;14.50;99.90;;;;;;5020598;28;20043;-47
2022/09/09 07:39:14;;;;;;;3.90;2.03;;;14.50;99.90;;;;;;5052404;28;20068;-47
2022/09/09 07:41:48;;;;;;;2.45;2.00;;;14.60;99.90;;;;;;5032095;28;20044;-47
2022/09/09 07:44:21;;;;;;;4.60;2.40;;;14.60;99.90;;;;;;5033902;28;20564;-46
2022/09/09 07:46:51;;;;;;;4.15;2.45;;;14.60;99.90;;;;;;5033263;28;20052;-47
2022/09/09 07:49:24;;;;;;;4.63;2.65;;;14.60;99.90;;;;;;5034926;28;20045;-46
2022/09/09 07:51:59;;;;;;;3.85;2.35;;;14.60;99.90;;;;;;5033200;28;20076;-47
2022/09/09 07:54:26;;;;;;;8.25;2.45;;;14.60;99.90;;;;;;5033822;28;20053;-48
2022/09/09 07:56:53;;;;;;;4.90;3.15;;;14.50;99.90;;;;;;5034395;28;20485;-46
2022/09/09 07:59:23;;;;;;;4.80;2.90;;;14.60;99.90;;;;;;5028854;28;20038;-47
2022/09/09 08:01:55;;;;;;;3.95;2.80;;;14.60;99.90;;;;;;5026170;28;20490;-47
2022/09/09 08:04:27;;;;;;;5.22;2.85;;;14.70;99.90;;;;;;5032247;28;20049;-46
2022/09/09 08:06:57;;;;;;;4.90;3.47;;;14.70;99.90;;;;;;5017212;28;20103;-46
2022/09/09 08:09:28;;;;;;;6.00;3.85;;;14.80;99.90;;;;;;5038148;28;20052;-46
2022/09/09 08:12:08;;;;;;;8.32;4.18;;;14.80;99.90;;;;;;5069722;28;20049;-46
2022/09/09 08:14:35;;;;;;;4.00;2.90;;;14.80;99.90;;;;;;5069601;28;20500;-46
2022/09/09 08:17:02;;;;;;;8.07;3.15;;;14.80;99.90;;;;;;5039133;28;20061;-46
2022/09/09 08:19:33;;;;;;;4.97;3.28;;;14.80;99.90;;;;;;5046688;28;20045;-47
2022/09/09 08:22:02;;;;;;;3.42;2.80;;;14.90;99.90;;;;;;5045289;28;20078;-46
2022/09/09 08:24:30;;;;;;;3.97;2.97;;;14.90;99.90;;;;;;5038068;28;20124;-47
2022/09/09 08:26:57;;;;;;;4.07;3.03;;;15.00;99.90;;;;;;5051242;28;20037;-48
2022/09/09 08:29:24;;;;;;;4.93;2.00;;;15.10;99.90;;;;;;5032544;28;20075;-47
2022/09/09 08:31:56;;;;;;;6.03;2.65;;;15.10;99.90;;;;;;5033712;28;20045;-46
2022/09/09 08:34:25;;;;;;;11.05;2.60;;;15.10;99.90;;;;;;5031877;28;20049;-46
2022/09/09 08:36:52;;;;;;;3.67;2.60;;;15.10;99.90;;;;;;5033611;28;20387;-46
2022/09/09 08:39:24;;;;;;;3.25;2.60;;;15.20;99.90;;;;;;5033083;28;20053;-48
2022/09/09 08:42:02;;;;;;;3.28;2.97;;;15.20;99.90;;;;;;5048849;28;20548;-46
2022/09/09 08:44:48;;;;;;;5.20;3.55;;;15.20;99.90;;;;;;5033073;28;20136;-46
2022/09/09 08:47:49;;;;;;;4.53;3.05;;;15.20;99.90;;;;;;5033215;28;20044;-47
2022/09/09 08:50:24;;;;;;;4.88;3.03;;;15.20;99.90;;;;;;5022783;28;20049;-47
2022/09/09 08:53:10;;;;;;;5.22;2.40;;;15.30;99.90;;;;;;5033122;28;20095;-46
2022/09/09 08:55:46;;;;;;;4.20;2.85;;;15.40;99.90;;;;;;5032102;28;20049;-46
2022/09/09 08:58:29;;;;;;;3.95;3.00;;;15.50;99.90;;;;;;5035622;28;20052;-46
2022/09/09 09:01:35;;;;;;;4.93;3.10;;;15.50;99.90;;;;;;5028258;28;20386;-47
2022/09/09 09:04:08;;;;;;;3.72;3.17;;;15.60;99.90;;;;;;5052398;28;20136;-46
2022/09/09 09:07:10;;;;;;;7.00;3.17;;;15.70;99.90;;;;;;5052825;28;20127;-46
2022/09/09 09:10:19;;;;;;;7.78;3.58;;;15.70;99.90;;;;;;5047269;28;20033;-46
2022/09/09 09:13:20;;;;;;;4.95;3.05;;;15.60;99.90;;;;;;5031249;28;20874;-47
2022/09/09 09:15:56;;;;;;;8.10;3.88;;;15.60;99.90;;;;;;5047801;28;20648;-46
2022/09/09 09:18:23;;;;;;;4.65;2.97;;;15.60;99.90;;;;;;5029621;28;20524;-46
2022/09/09 09:21:10;;;;;;;4.15;2.13;;;15.60;99.90;;;;;;5047285;28;20045;-46
2022/09/09 09:23:59;;;;;;;2.97;2.45;;;15.50;99.90;;;;;;5041379;28;20045;-46
2022/09/09 09:26:35;;;;;;;5.53;2.25;;;15.50;99.90;;;;;;5044611;28;20044;-46
2022/09/09 09:29:18;;;;;;;5.00;2.33;;;15.50;99.90;;;;;;5043118;28;20047;-47
2022/09/09 09:31:58;;;;;;;3.67;2.25;;;15.40;99.90;;;;;;5041786;28;20041;-50
2022/09/09 09:34:25;;;;;;;3.35;2.50;;;15.40;99.90;;;;;;5030074;28;20044;-47
2022/09/09 09:37:04;;;;;;;4.05;2.40;;;15.50;99.90;;;;;;5036418;28;20408;-46
2022/09/09 09:39:38;;;;;;;4.30;2.45;;;15.60;99.90;;;;;;5037188;28;20132;-46
2022/09/09 09:42:25;;;;;;;5.25;2.60;;;15.60;99.90;;;;;;5041065;28;20063;-46
2022/09/09 09:44:55;;;;;;;5.22;2.80;;;15.70;99.90;;;;;;5056101;28;20132;-46
2022/09/09 09:47:23;;;;;;;4.32;3.08;;;15.70;99.90;;;;;;5073173;28;20045;-46
2022/09/09 09:50:20;;;;;;;3.53;3.00;;;15.70;99.90;;;;;;5050177;28;20032;-46
2022/09/09 09:52:58;;;;;;;4.93;3.20;;;15.80;99.90;;;;;;5025892;28;20107;-46
2022/09/09 09:55:29;;;;;;;4.72;2.55;;;15.90;99.90;;;;;;5055592;28;20045;-47
2022/09/09 09:58:06;;;;;;;5.70;2.90;;;15.90;99.90;;;;;;5050756;28;20053;-47
2022/09/09 10:00:35;;;;;;;3.88;2.10;;;16.00;99.90;;;;;;5041008;28;20500;-46
2022/09/09 10:03:22;;;;;;;4.35;2.83;;;16.10;99.90;;;;;;5055386;28;20044;-46
2022/09/09 10:05:51;;;;;;;3.88;2.30;;;16.10;99.90;;;;;;5062090;28;20037;-47
2022/09/09 10:08:19;;;;;;;8.15;2.72;;;16.20;99.90;;;;;;5045684;28;20378;-46
2022/09/09 10:11:19;;;;;;;2.83;2.03;;;16.30;99.90;;;;;;5054214;28;20080;-46
2022/09/09 10:13:54;;;;;;;5.40;3.00;;;16.40;99.90;;;;;;5050265;28;20041;-47
2022/09/09 10:16:32;;;;;;;3.70;2.60;;;16.40;99.90;;;;;;5050928;28;20140;-46
2022/09/09 10:19:21;;;;;;;7.53;2.35;;;16.50;99.90;;;;;;5038379;28;20068;-47
2022/09/09 10:22:18;;;;;;;2.67;2.00;;;16.60;99.90;;;;;;5054189;28;20045;-47
2022/09/09 10:24:52;;;;;;;2.25;1.73;;;16.60;99.90;;;;;;5053190;28;20079;-46
2022/09/09 10:27:25;;;;;;;2.20;2.00;;;16.60;99.90;;;;;;5053656;28;20061;-47
2022/09/09 10:30:22;;;;;;;2.65;2.30;;;16.50;99.90;;;;;;5053556;28;20375;-46
2022/09/09 10:32:53;;;;;;;5.55;1.98;;;16.40;99.90;;;;;;5053585;28;20565;-47
2022/09/09 10:35:30;;;;;;;3.35;1.98;;;16.30;99.90;;;;;;5053001;28;20449;-47
2022/09/09 10:38:13;;;;;;;;;;;16.10;99.90;;;;;;5042781;28;20102;-46
2022/09/09 10:40:51;;;;;;;4.22;1.92;;;16.10;99.90;;;;;;5053103;28;19927;-46
2022/09/09 10:43:39;;;;;;;4.35;1.65;;;16.00;99.90;;;;;;5049821;28;20044;-46
2022/09/09 10:46:23;;;;;;;6.50;1.60;;;15.90;99.90;;;;;;5053319;28;20471;-46
2022/09/09 10:49:04;;;;;;;2.80;1.17;;;15.90;99.90;;;;;;5052922;28;20052;-48
2022/09/09 10:51:37;;;;;;;4.00;1.00;;;15.90;99.90;;;;;;5050461;28;20065;-47
2022/09/09 10:54:23;;;;;;;1.85;1.30;;;15.90;99.90;;;;;;5053545;28;20112;-46
2022/09/09 10:56:56;;;;;;;2.28;1.00;;;15.80;99.90;;;;;;5052718;28;20076;-47
2022/09/09 10:59:47;;;;;;;3.78;1.10;;;15.80;99.90;;;;;;5035784;28;20037;-46
2022/09/09 11:02:30;;;;;;;1.70;1.10;;;15.80;99.90;;;;;;5050574;28;20068;-48
2022/09/09 11:05:03;;;;;;;2.35;1.25;;;15.80;99.90;;;;;;5052684;28;20072;-46
2022/09/09 11:07:40;;;;;;;2.67;1.00;;;15.90;99.90;;;;;;5051428;28;20072;-47
2022/09/09 11:10:24;;;;;;;1.33;0.90;;;15.80;99.90;;;;;;5049722;28;20549;-45
2022/09/09 11:12:55;;;;;;;1.10;1.00;;;15.80;99.90;;;;;;5052177;28;20136;-46
2022/09/09 11:15:46;;;;;;;1.83;1.00;;;15.80;99.90;;;;;;5052630;28;20048;-46
2022/09/09 11:18:21;;;;;;;0.80;0.80;;;15.70;99.90;;;;;;5049723;28;20037;-46
2022/09/09 11:20:53;;;;;;;3.63;0.90;;;15.70;99.90;;;;;;5043962;28;20037;-48
2022/09/09 11:23:32;;;;;;;2.15;0.85;;;15.70;99.90;;;;;;5053047;28;20098;-47
2022/09/09 11:26:03;;;;;;;4.10;1.20;;;15.70;99.90;;;;;;5048279;28;20071;-46
2022/09/09 11:28:55;;;;;;;1.92;1.00;;;15.70;99.90;;;;;;5052396;28;20444;-47
2022/09/09 11:31:51;;;;;;;0.60;0.60;;;15.70;99.90;;;;;;5035273;28;20068;-48
2022/09/09 11:34:49;;;;;;;1.40;0.75;;;15.60;99.90;;;;;;5049461;28;20084;-47
2022/09/09 11:37:26;;;;;;;1.83;0.80;;;15.50;99.90;;;;;;5043053;28;20128;-46
2022/09/09 11:40:07;;;;;;;2.05;0.90;;;15.50;99.90;;;;;;5032572;28;20076;-47
2022/09/09 11:42:34;;;;;;;1.38;0.85;;;15.60;99.90;;;;;;5042215;28;20037;-47
2022/09/09 11:45:24;;;;;;;2.03;1.00;;;15.70;99.90;;;;;;5052029;28;20071;-46
2022/09/09 11:47:59;;;;;;;0.80;0.80;;;15.70;99.90;;;;;;5052174;28;20155;-47
2022/09/09 11:50:30;;;;;;;1.45;0.80;;;15.70;99.90;;;;;;5042180;28;20080;-47
2022/09/09 11:53:22;;;;;;;1.70;0.80;;;15.60;99.90;;;;;;5052092;28;20068;-48
2022/09/09 11:56:03;;;;;;;1.55;0.90;;;15.60;99.90;;;;;;5042387;28;20590;-47
2022/09/09 11:58:37;;;;;;;7.20;3.05;;;15.80;99.90;;;;;;5043194;28;20124;-47
2022/09/09 12:01:14;;;;;;;16.50;7.57;;;16.10;99.90;;;;;;5044265;28;20076;-47
2022/09/09 12:03:48;;;;;;;6.68;3.28;;;16.20;99.90;;;;;;5044436;28;20117;-47
2022/09/09 12:06:31;;;;;;;4.32;2.05;;;16.30;99.90;;;;;;5040560;28;20045;-48
2022/09/09 12:09:08;;;;;;;6.88;3.30;;;16.40;99.90;;;;;;5046344;28;20049;-47
2022/09/09 12:11:34;;;;;;;2.95;1.63;;;16.40;99.90;;;;;;5044787;28;20123;-47
2022/09/09 12:14:01;;;;;;;2.58;1.08;;;16.50;99.90;;;;;;5041862;28;20041;-47
2022/09/09 12:16:34;;;;;;;2.75;0.95;;;16.50;99.90;;;;;;5044452;28;20119;-46
2022/09/09 12:19:14;;;;;;;1.85;0.90;;;16.40;99.90;;;;;;5044658;28;20092;-46
2022/09/09 12:22:03;;;;;;;0.85;0.70;;;16.40;99.90;;;;;;5044954;28;20060;-46
2022/09/09 12:25:06;;;;;;;2.40;0.90;;;16.40;99.90;;;;;;5041988;28;20029;-49
2022/09/09 12:28:10;;;;;;;1.20;1.08;;;16.40;99.90;;;;;;5053866;22;20136;-49
2022/09/09 12:31:04;;;;;;;0.98;0.90;;;16.50;99.90;;;;;;5032338;28;20125;-48
2022/09/09 12:33:37;;;;;;;3.00;1.30;;;16.40;99.90;;;;;;5038121;28;20068;-49
2022/09/09 12:36:07;;;;;;;2.83;1.20;;;16.50;99.90;;;;;;5040543;28;20049;-48
2022/09/09 12:38:38;;;;;;;0.77;0.65;;;16.50;99.90;;;;;;5002268;28;20161;-48
2022/09/09 12:41:05;;;;;;;1.00;0.50;;;16.60;99.90;;;;;;5019671;28;20042;-48
2022/09/09 12:43:32;;;;;;;2.70;0.70;;;16.70;99.90;;;;;;5027580;28;20084;-48
2022/09/09 12:46:16;;;;;;;2.92;0.70;;;16.60;99.90;;;;;;5029336;28;20449;-48
2022/09/09 12:48:45;;;;;;;1.50;0.82;;;16.50;99.90;;;;;;5022482;28;20116;-48
2022/09/09 12:51:30;;;;;;;1.05;0.75;;;16.40;99.90;;;;;;5028514;28;20048;-49
2022/09/09 12:53:58;;;;;;;2.03;0.77;;;16.30;99.90;;;;;;5010016;28;20038;-48
2022/09/09 12:56:29;;;;;;;0.90;0.60;;;16.20;99.90;;;;;;5022084;28;20068;-48
2022/09/09 12:58:58;;;;;;;2.67;0.90;;;16.10;99.90;;;;;;5013532;28;20042;-51
2022/09/09 13:01:29;;;;;;;1.00;0.90;;;16.00;99.90;;;;;;5010155;28;20045;-48
2022/09/09 13:03:56;;;;;;;2.30;0.77;;;16.00;99.90;;;;;;5010643;28;20037;-48
2022/09/09 13:06:28;;;;;;;1.83;0.70;;;15.90;99.90;;;;;;5006703;28;20038;-48
2022/09/09 13:09:00;;;;;;;4.78;0.80;;;15.80;99.90;;;;;;5006184;28;20030;-48
2022/09/09 13:11:38;;;;;;;4.60;0.90;;;15.80;99.90;;;;;;5009910;28;20069;-48
2022/09/09 13:14:06;;;;;;;2.72;1.20;;;15.70;99.90;;;;;;5009570;28;20421;-49
2022/09/09 13:16:35;;;;;;;3.45;0.90;;;15.70;99.90;;;;;;5002048;28;20045;-48
2022/09/09 13:19:14;;;;;;;2.53;0.90;;;15.60;99.90;;;;;;5010886;28;20379;-50
2022/09/09 13:21:42;;;;;;;3.92;0.80;;;15.60;99.90;;;;;;5008536;28;20557;-50
2022/09/09 13:24:32;;;;;;;6.05;0.85;;;15.60;99.90;;;;;;5010504;28;20128;-48
2022/09/09 13:27:01;;;;;;;1.33;0.65;;;15.70;99.90;;;;;;5001732;28;20498;-49
2022/09/09 13:29:29;;;;;;;1.33;0.93;;;15.70;99.90;;;;;;5004846;28;20066;-50
2022/09/09 13:32:07;;;;;;;2.30;0.90;;;15.70;99.90;;;;;;5007272;28;20073;-49
2022/09/09 13:34:35;;;;;;;1.80;1.08;;;15.70;99.90;;;;;;5003034;28;20066;-48
2022/09/09 13:37:17;;;;;;;1.13;0.60;;;15.80;99.90;;;;;;5009631;28;20080;-49
2022/09/09 13:39:52;;;;;;;2.75;0.70;;;15.90;99.90;;;;;;5008191;28;20072;-51
2022/09/09 13:42:26;;;;;;;1.50;0.98;;;15.90;99.90;;;;;;5022938;28;20103;-48